createdAt,value
2018-11-14T00:02:25.801Z,8.10
2018-11-14T00:07:28.396Z,8.03
2018-11-14T00:12:45.515Z,9.67
2018-11-14T00:17:48.227Z,12.50
2018-11-14T00:22:50.817Z,8.90
2018-11-14T00:27:52.889Z,8.33
2018-11-14T00:32:54.845Z,8.07
2018-11-14T00:37:56.801Z,10.53
2018-11-14T00:42:59.202Z,8.83
2018-11-14T00:48:01.630Z,6.80
2018-11-14T00:53:03.839Z,9.60
2018-11-14T00:58:05.871Z,10.00
2018-11-14T01:03:07.914Z,6.57
2018-11-14T01:08:09.886Z,6.93
2018-11-14T01:13:12.011Z,8.07
2018-11-14T01:18:14.215Z,8.13
2018-11-14T01:23:16.243Z,11.77
2018-11-14T01:28:18.574Z,11.67
2018-11-14T01:33:20.559Z,9.00
2018-11-14T01:38:22.823Z,8.03
2018-11-14T01:43:25.083Z,9.27
2018-11-14T01:48:27.614Z,10.87
2018-11-14T01:53:29.602Z,9.80
2018-11-14T01:58:31.571Z,11.83
2018-11-14T02:03:33.953Z,9.27
2018-11-14T02:08:35.957Z,10.47
2018-11-14T02:13:37.952Z,10.07
2018-11-14T02:18:40.613Z,8.17
2018-11-14T02:23:42.582Z,8.57
2018-11-14T02:28:44.875Z,10.20
2018-11-14T02:33:46.884Z,11.50
2018-11-14T02:38:48.911Z,12.17
2018-11-14T02:43:50.995Z,11.00
2018-11-14T02:48:53.293Z,12.67
2018-11-14T02:53:55.433Z,7.40
2018-11-14T02:58:57.422Z,10.97
2018-11-14T03:03:59.637Z,11.80
2018-11-14T03:09:01.644Z,9.03
2018-11-14T03:14:03.971Z,9.53
2018-11-14T03:19:06.031Z,8.23
2018-11-14T03:24:08.163Z,9.60
2018-11-14T03:29:10.135Z,12.77
2018-11-14T03:34:12.118Z,13.20
2018-11-14T03:39:14.502Z,17.13
2018-11-14T03:44:16.991Z,11.77
2018-11-14T03:49:19.880Z,9.47
2018-11-14T03:54:21.866Z,11.43
2018-11-14T03:59:23.859Z,8.77
2018-11-14T04:04:26.559Z,10.97
2018-11-14T04:09:28.577Z,12.17
2018-11-14T04:14:30.706Z,12.40
2018-11-14T04:19:33.811Z,11.40
2018-11-14T04:24:35.799Z,16.87
2018-11-14T04:29:37.794Z,13.20
2018-11-14T04:34:40.055Z,15.67
2018-11-14T04:39:42.307Z,20.53
2018-11-14T04:44:44.307Z,23.13
2018-11-14T04:49:46.810Z,19.20
2018-11-14T04:54:48.838Z,20.07
2018-11-14T04:59:50.904Z,24.80
2018-11-14T05:04:52.940Z,25.37
2018-11-14T05:09:55.631Z,26.83
2018-11-14T05:14:57.647Z,30.23
2018-11-14T05:20:00.797Z,31.60
2018-11-14T05:25:03.143Z,29.20
2018-11-14T05:30:07.720Z,35.67
2018-11-14T05:35:10.700Z,29.70
2018-11-14T05:40:14.125Z,30.57
2018-11-14T05:45:25.072Z,32.70
2018-11-14T05:50:27.784Z,27.67
2018-11-14T05:55:29.803Z,29.73
2018-11-14T06:00:31.912Z,25.50
2018-11-14T06:05:33.978Z,23.70
2018-11-14T06:10:36.372Z,30.20
2018-11-14T06:15:38.413Z,33.60
2018-11-14T06:20:40.477Z,30.80
2018-11-14T06:25:42.718Z,27.40
2018-11-14T06:30:44.759Z,19.97
2018-11-14T06:35:46.794Z,16.90
2018-11-14T06:40:48.820Z,20.17
2018-11-14T06:45:50.865Z,13.37
2018-11-14T06:50:52.969Z,17.43
2018-11-14T06:55:55.032Z,21.63
2018-11-14T07:00:57.089Z,17.13
2018-11-14T07:05:59.274Z,18.17
2018-11-14T07:11:01.515Z,18.63
2018-11-14T07:16:03.438Z,20.23
2018-11-14T07:21:05.514Z,22.67
2018-11-14T07:26:07.534Z,22.53
2018-11-14T07:31:09.526Z,24.43
2018-11-14T07:36:11.534Z,21.53
2018-11-14T07:41:15.802Z,26.40
2018-11-14T07:46:18.010Z,26.53
2018-11-14T07:51:20.130Z,24.40
2018-11-14T07:56:22.502Z,27.00
2018-11-14T08:01:24.994Z,24.00
2018-11-14T08:06:27.027Z,27.53
2018-11-14T08:11:29.044Z,25.80
2018-11-14T08:16:31.066Z,20.43
2018-11-14T08:21:33.683Z,23.20
2018-11-14T08:26:36.014Z,21.90
2018-11-14T08:31:37.985Z,20.20
2018-11-14T08:36:40.174Z,17.53
2018-11-14T08:41:42.178Z,21.73
2018-11-14T08:46:44.199Z,23.13
2018-11-14T08:51:46.512Z,21.30
2018-11-14T08:56:48.555Z,19.00
2018-11-14T09:01:50.610Z,23.83
2018-11-14T09:06:52.760Z,21.73
2018-11-14T09:11:55.698Z,18.63
2018-11-14T09:16:57.730Z,16.57
2018-11-14T09:22:00.531Z,23.27
2018-11-14T09:27:02.643Z,21.57
2018-11-14T09:32:04.715Z,23.60
2018-11-14T09:37:06.731Z,19.73
2018-11-14T09:42:08.769Z,24.67
2018-11-14T09:47:11.093Z,16.53
2018-11-14T09:52:13.197Z,22.63
2018-11-14T09:57:15.274Z,20.40
2018-11-14T10:02:17.341Z,17.93
2018-11-14T10:07:19.367Z,12.43
2018-11-14T10:12:21.593Z,21.37
2018-11-14T10:17:23.847Z,15.27
2018-11-14T10:22:26.206Z,15.00
2018-11-14T10:27:29.106Z,20.03
2018-11-14T10:32:32.692Z,12.40
2018-11-14T10:37:34.756Z,13.40
2018-11-14T10:42:37.709Z,13.97
2018-11-14T10:47:40.433Z,8.63
2018-11-14T10:52:42.518Z,13.23
2018-11-14T10:57:45.579Z,11.97
2018-11-14T11:02:53.706Z,11.83
2018-11-14T11:08:02.079Z,14.07
2018-11-14T11:13:15.465Z,12.10
2018-11-14T11:18:19.031Z,10.73
2018-11-14T11:23:21.176Z,9.13
2018-11-14T11:28:24.243Z,9.60
2018-11-14T11:33:26.682Z,11.00
2018-11-14T11:38:29.411Z,12.33
2018-11-14T11:43:32.256Z,14.23
2018-11-14T11:48:35.197Z,11.23
2018-11-14T11:53:39.361Z,15.10
2018-11-14T11:58:42.330Z,13.93
2018-11-14T12:03:45.874Z,13.23
2018-11-14T12:08:49.324Z,10.40
2018-11-14T12:13:54.175Z,11.00
2018-11-14T12:18:56.885Z,12.73
2018-11-14T12:23:59.004Z,12.67
2018-11-14T12:29:01.753Z,12.73
2018-11-14T12:34:14.266Z,10.43
2018-11-14T12:39:16.347Z,11.53
2018-11-14T12:44:19.080Z,13.63
2018-11-14T12:49:21.874Z,11.83
2018-11-14T12:54:24.813Z,9.67
2018-11-14T12:59:27.011Z,10.10
2018-11-14T13:04:29.044Z,10.33
2018-11-14T13:09:31.481Z,13.17
2018-11-14T13:14:34.101Z,12.27
2018-11-14T13:19:36.135Z,9.93
2018-11-14T13:24:38.648Z,7.53
2018-11-14T13:29:42.060Z,9.40
2018-11-14T13:34:44.118Z,6.67
2018-11-14T13:39:46.204Z,10.20
2018-11-14T13:44:48.814Z,7.93
2018-11-14T13:49:51.220Z,7.77
2018-11-14T13:54:53.233Z,8.73
2018-11-14T13:59:55.287Z,13.13
2018-11-14T14:04:57.303Z,9.63
2018-11-14T14:09:59.815Z,7.97
2018-11-14T14:15:02.005Z,10.83
2018-11-14T14:20:05.065Z,10.13
2018-11-14T14:25:08.773Z,13.20
2018-11-14T14:30:16.141Z,11.33
2018-11-14T14:35:20.355Z,14.07
2018-11-14T14:40:22.815Z,10.83
2018-11-14T14:45:26.050Z,11.43
2018-11-14T14:50:28.134Z,15.13
2018-11-14T14:55:30.251Z,17.20
2018-11-14T15:00:32.323Z,17.47
2018-11-14T15:05:34.443Z,15.73
2018-11-14T15:10:36.571Z,20.03
2018-11-14T15:15:38.601Z,19.83
2018-11-14T15:20:40.954Z,18.83
2018-11-14T15:25:43.011Z,12.83
2018-11-14T15:30:45.697Z,11.33
2018-11-14T15:35:47.765Z,12.13
2018-11-14T15:40:50.230Z,16.83
2018-11-14T15:45:52.565Z,16.33
2018-11-14T15:50:56.323Z,15.00
2018-11-14T15:55:58.322Z,14.03
2018-11-14T16:01:00.406Z,13.83
2018-11-14T16:06:03.728Z,13.13
2018-11-14T16:11:05.984Z,15.73
2018-11-14T16:16:08.033Z,10.43
2018-11-14T16:21:10.277Z,23.40
2018-11-14T16:26:13.409Z,10.80
2018-11-14T16:31:16.352Z,17.80
2018-11-14T16:36:18.996Z,16.63
2018-11-14T16:41:20.986Z,13.50
2018-11-14T16:46:24.130Z,12.00
2018-11-14T16:51:26.549Z,12.23
2018-11-14T16:56:29.526Z,15.10
2018-11-14T17:01:32.050Z,24.13
2018-11-14T17:06:34.687Z,17.83
2018-11-14T17:11:43.706Z,17.80
2018-11-14T17:16:45.950Z,14.83
2018-11-14T17:21:48.316Z,18.17
2018-11-14T17:26:50.757Z,17.37
2018-11-14T17:31:54.016Z,16.77
2018-11-14T17:36:56.659Z,16.70
2018-11-14T17:41:59.653Z,32.20
2018-11-14T17:47:01.494Z,24.07
2018-11-14T17:52:03.532Z,15.90
2018-11-14T17:57:05.603Z,17.73
2018-11-14T18:02:07.673Z,15.10
2018-11-14T18:07:11.585Z,14.70
2018-11-14T18:12:14.599Z,9.90
2018-11-14T18:17:17.450Z,18.30
2018-11-14T18:22:20.768Z,17.17
2018-11-14T18:27:23.253Z,15.30
2018-11-14T18:32:26.351Z,13.77
2018-11-14T18:37:28.558Z,17.03
2018-11-14T18:42:30.606Z,14.60
2018-11-14T18:47:32.686Z,19.83
2018-11-14T18:52:36.339Z,25.17
2018-11-14T18:57:38.997Z,20.37
2018-11-14T19:02:42.103Z,25.10
2018-11-14T19:07:45.870Z,23.20
2018-11-14T19:12:49.451Z,19.60
2018-11-14T19:17:52.547Z,22.93
2018-11-14T19:22:57.594Z,21.87
2018-11-14T19:28:00.406Z,24.20
2018-11-14T19:33:03.119Z,25.97
2018-11-14T19:38:05.173Z,24.23
2018-11-14T19:43:08.860Z,27.57
2018-11-14T19:48:12.039Z,29.30
2018-11-14T19:53:14.918Z,25.97
2018-11-14T19:58:16.999Z,23.77
2018-11-14T20:03:19.096Z,26.07
2018-11-14T20:08:22.234Z,29.43
2018-11-14T20:13:24.867Z,27.13
2018-11-14T20:18:27.862Z,29.67
2018-11-14T20:23:29.974Z,25.47
2018-11-14T20:28:33.707Z,25.00
2018-11-14T20:33:35.957Z,23.70
2018-11-14T20:38:38.005Z,34.90
2018-11-14T20:43:40.657Z,30.53
2018-11-14T20:48:42.751Z,25.07
2018-11-14T20:53:44.924Z,31.40
2018-11-14T20:58:47.227Z,27.17
2018-11-14T21:03:50.294Z,27.37
2018-11-14T21:08:52.999Z,30.83
2018-11-14T21:13:55.312Z,28.37
2018-11-14T21:18:57.351Z,26.37
2018-11-14T21:23:59.554Z,30.63
2018-11-14T21:29:01.635Z,33.33
2018-11-14T21:34:03.794Z,33.37
2018-11-14T21:39:09.174Z,34.07
2018-11-14T21:44:11.995Z,35.50
2018-11-14T21:49:19.782Z,36.43
2018-11-14T21:54:22.175Z,34.27
2018-11-14T21:59:24.191Z,31.47
2018-11-14T22:04:26.275Z,31.23
2018-11-14T22:09:28.509Z,37.40
2018-11-14T22:14:30.543Z,39.03
2018-11-14T22:19:32.848Z,32.33
2018-11-14T22:24:35.158Z,26.80
2018-11-14T22:29:37.543Z,29.87
2018-11-14T22:34:39.689Z,27.50
2018-11-14T22:39:41.631Z,29.73
2018-11-14T22:44:43.710Z,30.57
2018-11-14T22:49:46.679Z,32.77
2018-11-14T22:54:48.872Z,28.17
2018-11-14T22:59:51.231Z,32.27
2018-11-14T23:04:53.953Z,31.70
2018-11-14T23:09:55.986Z,29.77
2018-11-14T23:14:57.990Z,34.67
2018-11-14T23:20:00.546Z,34.20
2018-11-14T23:25:02.790Z,33.00
2018-11-14T23:30:05.943Z,37.47
2018-11-14T23:35:13.705Z,40.50
2018-11-14T23:40:15.718Z,36.63
2018-11-14T23:45:20.245Z,34.77
2018-11-14T23:50:25.359Z,39.43
2018-11-14T23:55:28.259Z,42.37
